Donvivant — WDF7184 — position and weather

sailwx.info

Track history (hours):
 
Tides and Currents Weather Stations Pressure Air Temp Water Temp Dewpoint Dewpoint Depression Visibility Wind Speed Wind Dir Waves Ship Positions

Donvivant

Owner: maylotte, donald h, green cove springs, FL. More information available from US FCC via Universal Licensing System and Coast Guard Vessel Documentation Center.

Last reported at 2017-Oct-05 22:12 UTC. Time now 2017-Nov-20 07:53 UTC.
Position N 39°08' W 009°29'.
Warning: this ship's position is 45 days out of date.

Length 15 m.

Type: Pleasure craft. MMSI: 367481910.

Date/timePositionNaut miles runAvg speedWind from/ knotsBaromVisibWave heightAir tempDewpointWater temp
2017-Oct-05 22:12N 39°08' W 009°29'2 6.5
2017-Oct-05 21:52N 39°06' W 009°29'2 6.5
2017-Oct-05 21:30N 39°03' W 009°28'3 6.6
2017-Oct-05 21:00N 39°00' W 009°29'3 6.5
2017-Oct-05 20:30N 38°57' W 009°30'3 6.6
2017-Oct-05 20:00N 38°54' W 009°30'3 6.3
2017-Oct-05 19:30N 38°51' W 009°31'3 6.5
2017-Oct-05 18:58N 38°47' W 009°31'5 5.5
2017-Oct-05 17:58N 38°42' W 009°29'3 6.7
2017-Oct-05 17:30N 38°41' W 009°25'0 0.5
2017-Oct-05 16:53N 38°42' W 009°25'8 5.9
2017-Oct-05 15:29N 38°34' W 009°21'3 6.1
2017-Oct-05 14:58N 38°31' W 009°19'5 6.2
2017-Oct-05 14:10N 38°27' W 009°17'1 6.8
2017-Oct-05 13:59N 38°26' W 009°16'8 6.6
2017-Oct-05 12:46N 38°19' W 009°10'2 6.7
2017-Oct-05 12:28N 38°17' W 009°09'3 6.5
2017-Oct-05 11:59N 38°14' W 009°07'3 6.6
2017-Oct-05 11:30N 38°12' W 009°05'3 6.2
2017-Oct-05 11:00N 38°09' W 009°03'3 5.9
2017-Oct-05 10:30N 38°06' W 009°01'3 6.1
2017-Oct-05 10:00N 38°04' W 008°60'3 6.0
2017-Oct-05 09:30N 38°01' W 008°57'3 5.7
2017-Oct-05 09:00N 37°59' W 008°55'3 6.1
2017-Oct-05 08:30N 37°56' W 008°53'1 2.8
2017-Oct-05 08:00N 37°57' W 008°52'0 0.0
2017-Oct-05 07:31N 37°57' W 008°52'0 0.0
2017-Oct-05 07:01N 37°57' W 008°52'0 0.0
2017-Oct-05 06:31N 37°57' W 008°52'0 0.0
2017-Oct-05 06:01N 37°57' W 008°52'0 0.0
2017-Oct-05 05:31N 37°57' W 008°52'0 0.0
2017-Oct-05 05:01N 37°57' W 008°52'0 0.0
2017-Oct-05 04:28N 37°57' W 008°52'0 0.0
2017-Oct-05 03:58N 37°57' W 008°52'0 0.0
2017-Oct-05 03:28N 37°57' W 008°52'0 0.0
2017-Oct-05 02:58N 37°57' W 008°52'0 0.0
2017-Oct-05 02:28N 37°57' W 008°52'0 0.0
2017-Oct-05 01:58N 37°57' W 008°52'0 0.0
2017-Oct-05 01:28N 37°57' W 008°52'0 0.0
2017-Oct-05 00:58N 37°57' W 008°52'0 0.0
2017-Oct-05 00:28N 37°57' W 008°52'0 0.0
2017-Oct-04 23:58N 37°57' W 008°52'0 0.0
2017-Oct-04 23:28N 37°57' W 008°52'0 0.0
2017-Oct-04 22:58N 37°57' W 008°52'0 0.0
2017-Oct-04 22:28N 37°57' W 008°52'0 0.0
2017-Oct-04 21:58N 37°57' W 008°52'0 0.0
2017-Oct-04 21:28N 37°57' W 008°52'0 0.0
2017-Oct-04 20:58N 37°57' W 008°52'0 0.0
2017-Oct-04 20:28N 37°57' W 008°52'0 0.0
2017-Oct-04 19:58N 37°57' W 008°52'0 0.0
2017-Oct-04 19:28N 37°57' W 008°52'0 0.0
2017-Oct-04 18:58N 37°57' W 008°52'0 0.0
2017-Oct-04 18:28N 37°57' W 008°52'0 0.0
2017-Oct-04 17:58N 37°57' W 008°52'0 0.0
2017-Oct-04 17:28N 37°57' W 008°52'0 0.0
2017-Oct-04 16:58N 37°57' W 008°52'0 0.0
2017-Oct-04 16:28N 37°57' W 008°52'0 0.0
2017-Oct-04 15:58N 37°57' W 008°52'0 0.0
2017-Oct-04 15:28N 37°57' W 008°52'0 0.0
2017-Oct-04 14:58N 37°57' W 008°52'0 0.0
2017-Oct-04 14:28N 37°57' W 008°52'0 0.0
2017-Oct-04 13:58N 37°57' W 008°52'0 0.0
2017-Oct-04 13:28N 37°57' W 008°52'0 0.0
2017-Oct-04 12:58N 37°57' W 008°52'0 0.0
2017-Oct-04 12:28N 37°57' W 008°52'0 0.0
2017-Oct-04 11:58N 37°57' W 008°52'0 0.0
2017-Oct-04 11:28N 37°57' W 008°52'0 0.0
2017-Oct-04 10:58N 37°57' W 008°52'0 0.0
2017-Oct-04 10:28N 37°57' W 008°52'0 0.0
2017-Oct-04 09:58N 37°57' W 008°52'0 0.4
2017-Oct-04 09:30N 37°57' W 008°52'0 0.0
2017-Oct-04 09:00N 37°57' W 008°52'0 0.0
2017-Oct-04 08:30N 37°57' W 008°52'0 0.0
2017-Oct-04 08:00N 37°57' W 008°52'0 0.0
2017-Oct-04 07:30N 37°57' W 008°52'0 0.0
2017-Oct-04 07:00N 37°57' W 008°52'0 0.0
2017-Oct-04 06:30N 37°57' W 008°52'0 0.0
2017-Oct-04 06:00N 37°57' W 008°52'0 0.0
2017-Oct-04 05:30N 37°57' W 008°52'0 0.0
2017-Oct-04 05:00N 37°57' W 008°52'0 0.0
2017-Oct-04 04:30N 37°57' W 008°52'0 0.0
2017-Oct-04 04:00N 37°57' W 008°52'0 0.0
2017-Oct-04 03:30N 37°57' W 008°52'0 0.0
2017-Oct-04 03:00N 37°57' W 008°52'0 0.0
2017-Oct-04 02:30N 37°57' W 008°52'0 0.0
2017-Oct-04 02:00N 37°57' W 008°52'0 0.0
2017-Oct-04 01:30N 37°57' W 008°52'0 0.0
2017-Oct-04 01:00N 37°57' W 008°52'0 0.0
2017-Oct-04 00:30N 37°57' W 008°52'1 2.7
2017-Oct-04 00:00N 37°56' W 008°52'2 4.9
2017-Oct-03 23:30N 37°53' W 008°52'3 6.8
2017-Oct-03 23:00N 37°50' W 008°52'52 5.1
2017-Oct-03 12:44N 36°59' W 008°40'2 6.3
2017-Oct-03 12:29N 36°59' W 008°38'  
Track history (hours):
 
Tides and Currents Weather Stations Pressure Air Temp Water Temp Dewpoint Dewpoint Depression Visibility Wind Speed Wind Dir Waves Ship Positions

Donvivant

Owner: maylotte, donald h, green cove springs, FL. More information available from US FCC via Universal Licensing System and Coast Guard Vessel Documentation Center.

Last reported at 2017-Oct-05 22:12 UTC. Time now 2017-Nov-20 07:53 UTC.
Position N 39°08' W 009°29'.
Warning: this ship's position is 45 days out of date.

Length 15 m.

Type: Pleasure craft. MMSI: 367481910.

Date/timePositionNaut miles runAvg speedWind from/ knotsBaromVisibWave heightAir tempDewpointWater temp
2017-Oct-05 22:12N 39°08' W 009°29'2 6.5
2017-Oct-05 21:52N 39°06' W 009°29'2 6.5
2017-Oct-05 21:30N 39°03' W 009°28'3 6.6
2017-Oct-05 21:00N 39°00' W 009°29'3 6.5
2017-Oct-05 20:30N 38°57' W 009°30'3 6.6
2017-Oct-05 20:00N 38°54' W 009°30'3 6.3
2017-Oct-05 19:30N 38°51' W 009°31'3 6.5
2017-Oct-05 18:58N 38°47' W 009°31'5 5.5
2017-Oct-05 17:58N 38°42' W 009°29'3 6.7
2017-Oct-05 17:30N 38°41' W 009°25'0 0.5
2017-Oct-05 16:53N 38°42' W 009°25'8 5.9
2017-Oct-05 15:29N 38°34' W 009°21'3 6.1
2017-Oct-05 14:58N 38°31' W 009°19'5 6.2
2017-Oct-05 14:10N 38°27' W 009°17'1 6.8
2017-Oct-05 13:59N 38°26' W 009°16'8 6.6
2017-Oct-05 12:46N 38°19' W 009°10'2 6.7
2017-Oct-05 12:28N 38°17' W 009°09'3 6.5
2017-Oct-05 11:59N 38°14' W 009°07'3 6.6
2017-Oct-05 11:30N 38°12' W 009°05'3 6.2
2017-Oct-05 11:00N 38°09' W 009°03'3 5.9
2017-Oct-05 10:30N 38°06' W 009°01'3 6.1
2017-Oct-05 10:00N 38°04' W 008°60'3 6.0
2017-Oct-05 09:30N 38°01' W 008°57'3 5.7
2017-Oct-05 09:00N 37°59' W 008°55'3 6.1
2017-Oct-05 08:30N 37°56' W 008°53'1 2.8
2017-Oct-05 08:00N 37°57' W 008°52'0 0.0
2017-Oct-05 07:31N 37°57' W 008°52'0 0.0
2017-Oct-05 07:01N 37°57' W 008°52'0 0.0
2017-Oct-05 06:31N 37°57' W 008°52'0 0.0
2017-Oct-05 06:01N 37°57' W 008°52'0 0.0
2017-Oct-05 05:31N 37°57' W 008°52'0 0.0
2017-Oct-05 05:01N 37°57' W 008°52'0 0.0
2017-Oct-05 04:28N 37°57' W 008°52'0 0.0
2017-Oct-05 03:58N 37°57' W 008°52'0 0.0
2017-Oct-05 03:28N 37°57' W 008°52'0 0.0
2017-Oct-05 02:58N 37°57' W 008°52'0 0.0
2017-Oct-05 02:28N 37°57' W 008°52'0 0.0
2017-Oct-05 01:58N 37°57' W 008°52'0 0.0
2017-Oct-05 01:28N 37°57' W 008°52'0 0.0
2017-Oct-05 00:58N 37°57' W 008°52'0 0.0
2017-Oct-05 00:28N 37°57' W 008°52'0 0.0
2017-Oct-04 23:58N 37°57' W 008°52'0 0.0
2017-Oct-04 23:28N 37°57' W 008°52'0 0.0
2017-Oct-04 22:58N 37°57' W 008°52'0 0.0
2017-Oct-04 22:28N 37°57' W 008°52'0 0.0
2017-Oct-04 21:58N 37°57' W 008°52'0 0.0
2017-Oct-04 21:28N 37°57' W 008°52'0 0.0
2017-Oct-04 20:58N 37°57' W 008°52'0 0.0
2017-Oct-04 20:28N 37°57' W 008°52'0 0.0
2017-Oct-04 19:58N 37°57' W 008°52'0 0.0
2017-Oct-04 19:28N 37°57' W 008°52'0 0.0
2017-Oct-04 18:58N 37°57' W 008°52'0 0.0
2017-Oct-04 18:28N 37°57' W 008°52'0 0.0
2017-Oct-04 17:58N 37°57' W 008°52'0 0.0
2017-Oct-04 17:28N 37°57' W 008°52'0 0.0
2017-Oct-04 16:58N 37°57' W 008°52'0 0.0
2017-Oct-04 16:28N 37°57' W 008°52'0 0.0
2017-Oct-04 15:58N 37°57' W 008°52'0 0.0
2017-Oct-04 15:28N 37°57' W 008°52'0 0.0
2017-Oct-04 14:58N 37°57' W 008°52'0 0.0
2017-Oct-04 14:28N 37°57' W 008°52'0 0.0
2017-Oct-04 13:58N 37°57' W 008°52'0 0.0
2017-Oct-04 13:28N 37°57' W 008°52'0 0.0
2017-Oct-04 12:58N 37°57' W 008°52'0 0.0
2017-Oct-04 12:28N 37°57' W 008°52'0 0.0
2017-Oct-04 11:58N 37°57' W 008°52'0 0.0
2017-Oct-04 11:28N 37°57' W 008°52'0 0.0
2017-Oct-04 10:58N 37°57' W 008°52'0 0.0
2017-Oct-04 10:28N 37°57' W 008°52'0 0.0
2017-Oct-04 09:58N 37°57' W 008°52'0 0.4
2017-Oct-04 09:30N 37°57' W 008°52'0 0.0
2017-Oct-04 09:00N 37°57' W 008°52'0 0.0
2017-Oct-04 08:30N 37°57' W 008°52'0 0.0
2017-Oct-04 08:00N 37°57' W 008°52'0 0.0
2017-Oct-04 07:30N 37°57' W 008°52'0 0.0
2017-Oct-04 07:00N 37°57' W 008°52'0 0.0
2017-Oct-04 06:30N 37°57' W 008°52'0 0.0
2017-Oct-04 06:00N 37°57' W 008°52'0 0.0
2017-Oct-04 05:30N 37°57' W 008°52'0 0.0
2017-Oct-04 05:00N 37°57' W 008°52'0 0.0
2017-Oct-04 04:30N 37°57' W 008°52'0 0.0
2017-Oct-04 04:00N 37°57' W 008°52'0 0.0
2017-Oct-04 03:30N 37°57' W 008°52'0 0.0
2017-Oct-04 03:00N 37°57' W 008°52'0 0.0
2017-Oct-04 02:30N 37°57' W 008°52'0 0.0
2017-Oct-04 02:00N 37°57' W 008°52'0 0.0
2017-Oct-04 01:30N 37°57' W 008°52'0 0.0
2017-Oct-04 01:00N 37°57' W 008°52'0 0.0
2017-Oct-04 00:30N 37°57' W 008°52'1 2.7
2017-Oct-04 00:00N 37°56' W 008°52'2 4.9
2017-Oct-03 23:30N 37°53' W 008°52'3 6.8
2017-Oct-03 23:00N 37°50' W 008°52'52 5.1
2017-Oct-03 12:44N 36°59' W 008°40'2 6.3
2017-Oct-03 12:29N 36°59' W 008°38'  

Dump ship's entire track history